Time;durP1;ratioP1;P1;durP2;ratioP2;P2;SDS_P1;SDS_P2;PMS_P1;PMS_P2;Temp;Humidity;BMP_temperature;BMP_pressure;BME280_temperature;BME280_humidity;BME280_pressure;Samples;Min_cycle;Max_cycle;Signal;HPM_P1;HPM_P2
2022/10/28 00:01:22;;;;;;;4.30;2.70;;;13.90;99.90;;;13.58;100.00;97987.44;4986856;28;20473;-49
2022/10/28 00:03:57;;;;;;;10.43;2.70;;;13.90;99.90;;;13.57;100.00;97991.03;4987493;28;20651;-49
2022/10/28 00:06:32;;;;;;;8.48;3.00;;;13.90;99.90;;;13.53;100.00;97992.94;4989382;28;20038;-47
2022/10/28 00:08:58;;;;;;;7.07;3.53;;;13.90;99.90;;;13.51;100.00;97989.50;4964038;28;20062;-46
2022/10/28 00:11:27;;;;;;;10.50;2.88;;;13.80;99.90;;;13.49;100.00;97996.63;4962196;28;20140;-47
2022/10/28 00:13:56;;;;;;;8.38;2.60;;;13.80;99.90;;;13.48;100.00;97999.34;4959849;28;20121;-48
2022/10/28 00:16:26;;;;;;;7.07;3.00;;;13.80;99.90;;;13.46;100.00;98003.81;4956164;28;20089;-52
2022/10/28 00:18:53;;;;;;;7.10;3.28;;;13.80;99.90;;;13.46;100.00;97993.22;4961113;28;20058;-50
2022/10/28 00:21:23;;;;;;;6.22;2.92;;;13.80;99.90;;;13.45;100.00;97996.81;4963025;28;20485;-51
2022/10/28 00:23:48;;;;;;;5.32;2.63;;;13.80;99.90;;;13.42;100.00;97989.81;4958193;28;20038;-52
2022/10/28 00:26:20;;;;;;;6.13;3.25;;;13.80;99.90;;;13.44;100.00;97989.78;4959554;28;20092;-51
2022/10/28 00:28:54;;;;;;;3.30;2.28;;;13.80;99.90;;;13.44;100.00;97992.44;4957754;28;20269;-48
2022/10/28 00:31:22;;;;;;;4.88;2.55;;;13.80;99.90;;;13.47;100.00;97987.00;4960582;28;20042;-51
2022/10/28 00:33:48;;;;;;;4.82;2.60;;;13.80;99.90;;;13.45;100.00;97979.13;4950921;28;20543;-47
2022/10/28 00:36:19;;;;;;;10.10;2.95;;;13.80;99.90;;;13.49;100.00;97979.88;4962600;28;20045;-49
2022/10/28 00:38:47;;;;;;;7.00;2.93;;;13.90;99.90;;;13.59;100.00;97993.63;4958290;28;20445;-47
2022/10/28 00:41:17;;;;;;;5.32;2.85;;;14.00;99.90;;;13.67;100.00;97980.91;4958725;28;20376;-49
2022/10/28 00:43:50;;;;;;;6.95;3.13;;;14.00;99.90;;;13.72;100.00;97992.19;4957267;28;20115;-47
2022/10/28 00:46:46;;;;;;;6.47;2.60;;;14.10;99.90;;;13.77;100.00;97982.28;4965070;28;20069;-49
2022/10/28 00:49:20;;;;;;;7.85;3.78;;;14.10;99.90;;;13.81;100.00;97985.66;4934829;28;20038;-52
2022/10/28 00:51:51;;;;;;;8.13;3.15;;;14.10;99.90;;;13.82;100.00;97982.97;4952783;28;20540;-52
2022/10/28 00:54:18;;;;;;;5.43;2.45;;;14.20;99.90;;;13.79;100.00;97977.78;4972206;28;20492;-49
2022/10/28 00:56:49;;;;;;;3.55;2.30;;;14.10;99.90;;;13.79;100.00;97984.88;4953526;28;20048;-47
2022/10/28 00:59:33;;;;;;;5.00;2.80;;;14.10;99.90;;;13.72;100.00;97979.81;4957989;28;20097;-48
2022/10/28 01:01:59;;;;;;;5.05;2.50;;;14.00;99.90;;;13.67;100.00;97975.63;4956826;28;20304;-48
2022/10/28 01:04:25;;;;;;;7.13;3.25;;;14.00;99.90;;;13.60;100.00;97985.59;4968561;28;20369;-47
2022/10/28 01:06:51;;;;;;;4.53;2.67;;;13.90;99.90;;;13.54;100.00;97988.50;4955254;28;20034;-46
2022/10/28 01:09:17;;;;;;;6.28;2.63;;;13.90;99.90;;;13.49;100.00;97993.97;4960089;28;20033;-48
2022/10/28 01:12:12;;;;;;;6.85;2.30;;;13.80;99.90;;;13.41;100.00;97981.97;4955884;28;20074;-48
2022/10/28 01:14:59;;;;;;;5.28;2.45;;;13.70;99.90;;;13.34;100.00;97982.19;4959007;28;20113;-47
2022/10/28 01:18:03;;;;;;;10.60;3.05;;;13.70;99.90;;;13.26;100.00;97980.72;4957279;28;20783;-48
2022/10/28 01:20:58;;;;;;;8.93;2.63;;;13.60;99.90;;;13.16;100.00;97975.78;4972313;28;20034;-47
2022/10/28 01:23:24;;;;;;;4.63;2.80;;;13.50;99.90;;;13.10;100.00;97970.72;4960568;28;20065;-48
2022/10/28 01:26:22;;;;;;;8.80;3.30;;;13.40;99.90;;;13.03;100.00;97969.25;4957973;28;20116;-48
2022/10/28 01:29:50;;;;;;;8.95;3.30;;;13.40;99.90;;;13.00;100.00;97966.69;4956408;28;20034;-50
2022/10/28 01:32:43;;;;;;;9.27;2.90;;;13.40;99.90;;;12.97;100.00;97967.69;4938119;28;20104;-49
2022/10/28 01:35:24;;;;;;;7.05;2.55;;;13.30;99.90;;;12.92;100.00;97967.00;4967721;28;20035;-46
2022/10/28 01:38:24;;;;;;;7.22;3.17;;;13.30;99.90;;;12.87;100.00;97965.44;4964058;28;20513;-48
2022/10/28 01:41:24;;;;;;;5.43;3.03;;;13.20;99.90;;;12.81;100.00;97977.09;4952697;28;20026;-49
2022/10/28 01:43:59;;;;;;;7.50;2.75;;;13.20;99.90;;;12.76;100.00;97973.78;4951146;28;20031;-49
2022/10/28 01:46:46;;;;;;;4.53;2.83;;;13.10;99.90;;;12.69;100.00;97972.28;4957134;28;20405;-49
2022/10/28 01:49:22;;;;;;;9.18;2.90;;;13.10;99.90;;;12.65;100.00;97968.00;4956468;28;20452;-48
2022/10/28 01:51:54;;;;;;;8.35;3.22;;;13.00;99.90;;;12.64;100.00;97967.13;4954093;28;20179;-52
2022/10/28 01:54:24;;;;;;;8.23;2.78;;;13.00;99.90;;;12.63;100.00;97970.69;4958934;28;20065;-49
2022/10/28 01:56:53;;;;;;;10.32;3.25;;;13.00;99.90;;;12.64;100.00;97966.28;4956643;28;20054;-51
2022/10/28 01:59:26;;;;;;;8.70;3.17;;;13.00;99.90;;;12.68;100.00;97963.44;4972982;28;20562;-50
2022/10/28 02:01:52;;;;;;;8.35;3.53;;;13.10;99.90;;;12.74;100.00;97965.91;4957868;28;20042;-50
2022/10/28 02:04:18;;;;;;;6.25;3.08;;;13.20;99.90;;;12.84;100.00;97962.91;4956622;28;20439;-46
2022/10/28 02:06:48;;;;;;;9.75;3.40;;;13.20;99.90;;;12.88;100.00;97957.41;4959673;28;20148;-47
2022/10/28 02:09:50;;;;;;;5.47;3.00;;;13.30;99.90;;;12.99;100.00;97957.91;4958529;28;20062;-49
2022/10/28 02:12:30;;;;;;;8.55;3.58;;;13.30;99.90;;;13.09;100.00;97953.09;4963092;28;20404;-47
2022/10/28 02:15:18;;;;;;;7.57;3.10;;;13.40;99.90;;;13.15;100.00;97957.28;4972063;28;20290;-48
2022/10/28 02:17:53;;;;;;;9.80;3.58;;;13.50;99.90;;;13.17;100.00;97956.34;4959397;28;20039;-48
2022/10/28 02:20:27;;;;;;;6.10;2.90;;;13.50;99.90;;;13.17;100.00;97953.69;4961270;28;20030;-49
2022/10/28 02:23:16;;;;;;;4.85;2.78;;;13.50;99.90;;;13.15;100.00;97952.88;4961661;28;20508;-46
2022/10/28 02:26:07;;;;;;;12.60;3.47;;;13.50;99.90;;;13.13;100.00;97946.75;4959128;28;20057;-47
2022/10/28 02:28:49;;;;;;;8.98;2.95;;;13.50;99.90;;;13.12;100.00;97950.34;4962453;28;20031;-47
2022/10/28 02:31:24;;;;;;;6.20;2.90;;;13.40;99.90;;;13.11;100.00;97951.25;4971203;28;21122;-49
2022/10/28 02:33:58;;;;;;;6.03;2.85;;;13.40;99.90;;;13.10;100.00;97944.25;4969061;28;20092;-45
2022/10/28 02:36:27;;;;;;;6.70;3.10;;;13.40;99.90;;;13.10;100.00;97944.25;4970228;28;20026;-46
2022/10/28 02:38:56;;;;;;;8.43;2.90;;;13.40;99.90;;;13.08;100.00;97943.44;4967640;28;20042;-46
2022/10/28 02:41:51;;;;;;;5.22;2.70;;;13.40;99.90;;;13.11;100.00;97937.16;4968534;28;20038;-47
2022/10/28 02:44:24;;;;;;;6.60;3.35;;;13.50;99.90;;;13.20;100.00;97934.16;4969101;28;20038;-45
2022/10/28 02:46:53;;;;;;;7.53;2.97;;;13.50;99.90;;;13.26;100.00;97933.94;4955817;28;22234;-49
2022/10/28 02:49:19;;;;;;;11.07;3.10;;;13.60;99.90;;;13.31;100.00;97936.41;4968405;28;20049;-45
2022/10/28 02:51:59;;;;;;;7.53;2.88;;;13.70;99.90;;;13.33;100.00;97937.22;4965247;28;20042;-46
2022/10/28 02:54:39;;;;;;;7.25;3.30;;;13.70;99.90;;;13.32;100.00;97949.59;4967643;28;20052;-48
2022/10/28 02:57:41;;;;;;;12.50;3.45;;;13.70;99.90;;;13.30;100.00;97929.38;4966848;28;20117;-47
2022/10/28 03:00:16;;;;;;;5.20;2.73;;;13.70;99.90;;;13.38;100.00;97942.34;4948104;28;20285;-47
2022/10/28 03:02:42;;;;;;;10.77;3.42;;;13.80;99.90;;;13.44;100.00;97940.31;4965752;28;20027;-48
2022/10/28 03:05:08;;;;;;;10.23;3.00;;;13.80;99.90;;;13.51;100.00;97940.91;4963645;28;20045;-50
2022/10/28 03:07:33;;;;;;;6.03;2.63;;;13.90;99.90;;;13.56;100.00;97945.09;4967613;28;20034;-46
2022/10/28 03:09:59;;;;;;;9.27;3.05;;;13.90;99.90;;;13.63;100.00;97945.72;4966674;28;21346;-46
2022/10/28 03:12:25;;;;;;;5.72;2.20;;;14.00;99.90;;;13.67;100.00;97938.50;4970717;28;20042;-50
2022/10/28 03:14:50;;;;;;;10.63;3.10;;;14.00;99.90;;;13.68;100.00;97938.44;4963043;28;20395;-47
2022/10/28 03:17:16;;;;;;;6.78;3.22;;;14.10;99.90;;;13.80;100.00;97945.06;4966474;28;20035;-50
2022/10/28 03:19:42;;;;;;;9.60;3.10;;;14.10;99.90;;;13.87;100.00;97941.22;4970206;28;20510;-47
2022/10/28 03:22:07;;;;;;;5.47;3.03;;;14.20;99.90;;;13.93;100.00;97948.91;4966369;28;20046;-48
2022/10/28 03:24:33;;;;;;;6.53;2.70;;;14.20;99.90;;;13.93;100.00;97946.25;4967310;28;20039;-49
2022/10/28 03:26:59;;;;;;;7.80;3.00;;;14.30;99.90;;;13.99;100.00;97947.78;4965171;28;20160;-50
2022/10/28 03:29:25;;;;;;;7.00;2.97;;;14.40;99.90;;;14.05;100.00;97949.31;4964709;28;20034;-48
2022/10/28 03:31:50;;;;;;;3.17;2.20;;;14.40;99.90;;;14.06;100.00;97935.13;4968581;28;20488;-49
2022/10/28 03:34:16;;;;;;;5.32;2.60;;;14.40;99.90;;;14.13;100.00;97941.91;4968733;28;20022;-49
2022/10/28 03:36:42;;;;;;;5.47;2.58;;;14.50;99.90;;;14.15;100.00;97941.84;4964632;28;20038;-47
2022/10/28 03:39:07;;;;;;;5.22;2.47;;;14.50;99.90;;;14.19;100.00;97943.44;4961670;28;20551;-49
2022/10/28 03:41:33;;;;;;;11.10;2.90;;;14.50;99.90;;;14.19;100.00;97946.06;4962510;28;20338;-50
2022/10/28 03:43:59;;;;;;;6.55;2.35;;;14.50;99.90;;;14.18;100.00;97950.53;4959414;28;20068;-49
2022/10/28 03:46:24;;;;;;;6.10;1.90;;;14.60;99.90;;;14.19;100.00;97954.88;4967594;28;20041;-47
2022/10/28 03:48:50;;;;;;;5.30;2.40;;;14.50;99.90;;;14.19;100.00;97944.28;4961751;28;20030;-51
2022/10/28 03:51:16;;;;;;;3.72;2.40;;;14.60;99.90;;;14.16;100.00;97947.09;4964423;28;20412;-48
2022/10/28 03:53:42;;;;;;;5.13;2.55;;;14.50;99.90;;;14.15;100.00;97939.19;4950063;28;20053;-48
2022/10/28 03:56:08;;;;;;;4.63;2.38;;;14.50;99.90;;;14.10;100.00;97928.75;4958732;28;20034;-50
2022/10/28 03:58:34;;;;;;;3.92;2.40;;;14.50;99.90;;;14.10;100.00;97937.59;4962379;28;20034;-49
2022/10/28 04:00:59;;;;;;;6.47;2.50;;;14.40;99.90;;;14.09;100.00;97927.06;4966111;28;20044;-49
2022/10/28 04:03:25;;;;;;;11.10;2.72;;;14.50;99.90;;;14.01;100.00;97921.19;4975357;28;20026;-48
2022/10/28 04:05:51;;;;;;;10.30;3.10;;;14.40;99.90;;;14.07;100.00;97927.13;4962252;28;20026;-50
2022/10/28 04:08:18;;;;;;;8.02;3.15;;;14.40;99.90;;;14.08;100.00;97920.00;4964344;28;20574;-49
2022/10/28 04:10:45;;;;;;;7.78;3.50;;;14.40;99.90;;;14.10;100.00;97915.50;4961719;28;20136;-50
2022/10/28 04:13:11;;;;;;;7.50;3.55;;;14.40;99.90;;;14.06;100.00;97909.47;4962047;28;20031;-50
2022/10/28 04:15:36;;;;;;;8.70;3.08;;;14.40;99.90;;;14.07;100.00;97920.97;4965396;28;20455;-49
2022/10/28 04:18:03;;;;;;;4.93;2.78;;;14.40;99.90;;;14.00;100.00;97915.03;4972809;28;20199;-51
2022/10/28 04:20:29;;;;;;;6.28;2.70;;;14.40;99.90;;;14.01;100.00;97921.19;4975063;28;20097;-47
2022/10/28 04:22:55;;;;;;;9.93;3.42;;;14.30;99.90;;;14.01;100.00;97927.34;4970812;28;22516;-47
2022/10/28 04:25:21;;;;;;;5.28;2.78;;;14.30;99.90;;;13.98;100.00;97910.72;4958569;28;20038;-46
2022/10/28 04:27:47;;;;;;;7.03;3.35;;;14.30;99.90;;;13.99;100.00;97918.63;4971938;28;20034;-49
2022/10/28 04:30:13;;;;;;;8.25;3.03;;;14.30;99.90;;;13.97;100.00;97909.88;4973192;28;20039;-47
2022/10/28 04:32:41;;;;;;;6.45;3.10;;;14.30;99.90;;;14.01;100.00;97913.25;4964674;28;20040;-48
2022/10/28 04:35:08;;;;;;;5.88;2.65;;;14.30;99.90;;;14.03;100.00;97912.28;4967197;28;20018;-50
2022/10/28 04:37:34;;;;;;;6.15;2.50;;;14.40;99.90;;;14.06;100.00;97916.56;4956812;28;20032;-48
2022/10/28 04:40:00;;;;;;;4.82;2.70;;;14.40;99.90;;;14.10;100.00;97918.16;4956079;28;20397;-48
2022/10/28 04:42:26;;;;;;;8.70;2.80;;;14.50;99.90;;;14.17;100.00;97921.41;4964046;28;20042;-51
2022/10/28 04:44:52;;;;;;;6.63;2.40;;;14.50;99.90;;;14.19;100.00;97915.09;4964133;28;20066;-49
2022/10/28 04:47:17;;;;;;;8.25;3.63;;;14.60;99.90;;;14.23;100.00;97914.06;4964462;28;20027;-46
2022/10/28 04:49:43;;;;;;;4.53;2.72;;;14.60;99.90;;;14.28;100.00;97914.72;4981865;28;20464;-50
2022/10/28 04:52:10;;;;;;;7.55;2.63;;;14.60;99.90;;;14.34;100.00;97924.19;4968515;28;20627;-46
2022/10/28 04:54:35;;;;;;;5.70;2.30;;;14.70;99.90;;;14.39;100.00;97927.53;4972922;28;20018;-48
2022/10/28 04:57:01;;;;;;;5.30;2.45;;;14.70;99.90;;;14.43;100.00;97926.44;4974760;28;20060;-49
2022/10/28 04:59:27;;;;;;;5.32;2.90;;;14.80;99.90;;;14.45;100.00;97931.69;4976698;28;20118;-49
2022/10/28 05:01:53;;;;;;;6.90;2.50;;;14.80;99.90;;;14.49;100.00;97927.97;4970893;28;20054;-48
2022/10/28 05:04:18;;;;;;;6.13;2.80;;;14.80;99.90;;;14.49;100.00;97920.00;4967494;28;20053;-48
2022/10/28 05:06:44;;;;;;;6.00;2.40;;;14.80;99.90;;;14.49;100.00;97920.00;4954453;28;20720;-50
2022/10/28 05:09:10;;;;;;;3.65;2.13;;;14.80;99.90;;;14.52;100.00;97922.53;4972404;28;20470;-49
2022/10/28 05:11:36;;;;;;;4.88;2.33;;;14.80;99.90;;;14.55;100.00;97918.88;4968349;28;20038;-50
2022/10/28 05:14:01;;;;;;;9.50;2.80;;;14.90;99.90;;;14.54;100.00;97907.38;4973315;28;20043;-51
2022/10/28 05:16:27;;;;;;;5.28;2.20;;;14.90;99.90;;;14.52;100.00;97906.59;4971026;28;20381;-50
2022/10/28 05:18:53;;;;;;;5.85;2.70;;;14.80;99.90;;;14.41;100.00;97877.00;4973399;28;20058;-50
2022/10/28 05:21:19;;;;;;;8.57;2.60;;;14.80;99.90;;;14.54;100.00;97893.28;4974683;28;20301;-48
2022/10/28 05:23:45;;;;;;;9.35;2.85;;;14.80;99.90;;;14.48;100.00;97883.75;4972560;28;20472;-47
2022/10/28 05:26:12;;;;;;;4.70;2.60;;;14.90;99.90;;;14.51;100.00;97894.25;4984472;28;20037;-50
2022/10/28 05:28:37;;;;;;;6.82;2.60;;;14.80;99.90;;;14.46;100.00;97886.50;4973807;28;20069;-49
2022/10/28 05:31:03;;;;;;;4.30;2.25;;;14.80;99.90;;;14.43;100.00;97893.75;4975371;28;20026;-47
2022/10/28 05:33:29;;;;;;;6.45;2.42;;;14.70;99.90;;;14.35;100.00;97898.53;4964625;28;20026;-50
2022/10/28 05:35:54;;;;;;;5.50;2.17;;;14.70;99.90;;;14.24;100.00;97896.34;4972640;28;20621;-49
2022/10/28 05:38:20;;;;;;;5.55;2.60;;;14.50;99.90;;;14.13;100.00;97888.84;4971679;28;20053;-46
2022/10/28 05:40:46;;;;;;;7.05;2.17;;;14.50;99.90;;;14.06;100.00;97895.34;4970787;28;20399;-46
2022/10/28 05:43:12;;;;;;;5.25;2.38;;;14.40;99.90;;;13.99;100.00;97891.25;4972564;28;20497;-48
2022/10/28 05:45:37;;;;;;;5.85;2.53;;;14.30;99.90;;;14.00;100.00;97883.22;4974730;28;20046;-49
2022/10/28 05:48:03;;;;;;;7.20;2.53;;;14.30;99.90;;;14.00;100.00;97888.53;4969422;28;20030;-49
2022/10/28 05:50:29;;;;;;;11.35;2.15;;;14.30;99.90;;;14.01;100.00;97889.38;4968996;28;20030;-47
2022/10/28 05:52:56;;;;;;;6.00;2.63;;;14.30;99.90;;;14.02;100.00;97888.47;4974045;28;20786;-47
2022/10/28 05:55:27;;;;;;;10.52;2.58;;;14.30;99.90;;;14.03;100.00;97898.13;4971738;28;20065;-46
2022/10/28 05:57:52;;;;;;;6.80;2.42;;;14.40;99.90;;;14.03;100.00;97898.13;5001844;23;20113;-51
2022/10/28 06:00:22;;;;;;;7.07;2.50;;;14.40;99.90;;;14.26;100.00;97895.34;4994526;28;20249;-51
2022/10/28 06:02:47;;;;;;;7.13;2.10;;;14.50;99.90;;;14.32;100.00;97897.72;4973135;28;20030;-52
2022/10/28 06:05:13;;;;;;;6.70;1.98;;;14.70;99.90;;;14.45;100.00;97902.50;4987065;28;20037;-51
2022/10/28 06:07:40;;;;;;;8.88;2.35;;;14.80;99.90;;;14.56;100.00;97900.22;4988675;28;20636;-51
2022/10/28 06:10:08;;;;;;;6.53;2.10;;;14.90;99.90;;;14.63;100.00;97899.03;5006812;28;20025;-49
2022/10/28 06:12:34;;;;;;;5.75;2.30;;;15.00;99.90;;;14.67;100.00;97903.28;5005088;28;20033;-50
2022/10/28 06:15:00;;;;;;;3.60;1.90;;;15.00;99.90;;;14.67;100.00;97903.28;5010832;28;20048;-50
2022/10/28 06:17:26;;;;;;;8.07;2.70;;;15.00;99.90;;;14.65;100.00;97905.13;5010715;28;20042;-49
2022/10/28 06:19:51;;;;;;;6.25;2.58;;;15.00;99.90;;;14.60;100.00;97893.00;4989199;28;21786;-47
2022/10/28 06:22:18;;;;;;;7.18;2.42;;;15.00;99.90;;;14.61;100.00;97905.38;4993158;28;20041;-48
2022/10/28 06:24:43;;;;;;;4.50;2.00;;;15.00;99.90;;;14.64;100.00;97903.44;5013066;28;20044;-52
2022/10/28 06:27:09;;;;;;;6.40;1.95;;;15.00;99.90;;;14.69;100.00;97906.72;5007312;28;20042;-47
2022/10/28 06:29:35;;;;;;;5.45;2.30;;;15.00;99.90;;;14.78;100.00;97912.56;5011859;28;20466;-51
2022/10/28 06:32:00;;;;;;;7.05;2.15;;;15.10;99.90;;;14.89;100.00;97911.13;5008615;28;20080;-50
2022/10/28 06:34:26;;;;;;;8.75;2.28;;;15.20;99.90;;;14.98;100.00;97912.47;5004478;28;20406;-51
2022/10/28 06:36:52;;;;;;;4.40;1.85;;;15.30;99.90;;;15.06;100.00;97914.78;5004358;28;20025;-48
2022/10/28 06:39:17;;;;;;;6.13;2.00;;;15.40;99.90;;;15.10;100.00;97915.50;5010814;28;20120;-52
2022/10/28 06:41:43;;;;;;;5.18;1.70;;;15.40;99.90;;;15.14;100.00;97917.09;5010240;28;20025;-48
2022/10/28 06:44:09;;;;;;;5.63;2.30;;;15.40;99.90;;;15.10;100.00;97908.41;5003771;28;20041;-47
2022/10/28 06:46:35;;;;;;;8.10;2.28;;;15.50;99.90;;;15.14;100.00;97901.16;4995244;28;20040;-47
2022/10/28 06:49:02;;;;;;;6.20;2.50;;;15.50;99.90;;;15.22;100.00;97905.16;5007871;28;20036;-50
2022/10/28 06:51:28;;;;;;;7.05;2.28;;;15.60;99.90;;;15.28;100.00;97902.19;5011145;28;20034;-50
2022/10/28 06:53:54;;;;;;;13.48;2.25;;;15.60;99.90;;;15.33;100.00;97906.47;5018037;28;20088;-49
2022/10/28 06:56:20;;;;;;;5.53;2.10;;;15.60;99.90;;;15.33;100.00;97896.69;5015961;28;20150;-49
2022/10/28 06:58:53;;;;;;;9.02;2.25;;;15.70;99.90;;;15.40;100.00;97898.09;5015495;28;20471;-48
2022/10/28 07:01:20;;;;;;;6.75;2.20;;;15.70;99.90;;;15.40;100.00;97894.59;5013052;28;20030;-48
2022/10/28 07:03:46;;;;;;;5.97;2.17;;;15.70;99.90;;;15.45;100.00;97898.75;5012027;28;20034;-49
2022/10/28 07:06:12;;;;;;;4.70;1.73;;;15.70;99.90;;;15.48;100.00;97904.84;5013778;28;20034;-50
2022/10/28 07:08:38;;;;;;;4.38;1.67;;;15.80;99.90;;;15.55;100.00;97903.59;5016418;28;20036;-51
2022/10/28 07:11:04;;;;;;;3.40;1.73;;;15.90;99.90;;;15.63;100.00;97899.63;5014148;28;20396;-48
2022/10/28 07:13:30;;;;;;;5.80;1.90;;;15.90;99.90;;;15.72;100.00;97908.06;5015280;28;20053;-47
2022/10/28 07:15:58;;;;;;;4.43;1.60;;;16.00;99.90;;;15.80;100.00;97909.47;5011646;28;20029;-45
2022/10/28 07:18:27;;;;;;;6.85;2.20;;;16.10;99.90;;;15.89;100.00;97913.47;5011187;28;20164;-55
2022/10/28 07:20:53;;;;;;;4.82;1.70;;;16.20;99.90;;;15.97;100.00;97921.03;5013129;28;20325;-53
2022/10/28 07:23:19;;;;;;;4.18;2.00;;;16.30;99.90;;;16.05;99.93;97924.19;5013610;28;20033;-57
2022/10/28 07:25:52;;;;;;;5.70;1.70;;;16.30;99.90;;;16.12;99.30;97930.91;5013538;28;20050;-53
2022/10/28 07:28:19;;;;;;;4.82;1.80;;;16.40;99.90;;;16.17;98.87;97938.69;5015732;28;20044;-52
2022/10/28 07:30:44;;;;;;;5.35;1.90;;;16.50;99.90;;;16.27;99.39;97947.03;5012834;28;20041;-53
2022/10/28 07:33:10;;;;;;;2.80;1.75;;;16.60;99.90;;;16.30;98.85;97950.41;5013481;28;20026;-53
2022/10/28 07:35:36;;;;;;;9.77;2.28;;;16.60;99.90;;;16.36;92.24;97957.22;5012462;28;20116;-54
2022/10/28 07:38:01;;;;;;;5.38;2.10;;;16.70;99.90;;;16.45;98.72;97958.53;5015359;28;20036;-55
2022/10/28 07:40:27;;;;;;;4.30;1.70;;;16.70;99.90;;;16.47;99.60;97964.66;5015726;28;20971;-53
2022/10/28 07:42:53;;;;;;;4.97;1.50;;;16.80;99.90;;;16.48;99.94;97953.91;5019913;28;20033;-54
2022/10/28 07:45:19;;;;;;;5.93;2.05;;;16.80;99.90;;;16.46;98.34;97955.81;5017760;28;20063;-54
2022/10/28 07:47:45;;;;;;;4.78;2.03;;;16.80;99.90;;;16.47;99.11;97951.34;5016876;28;20025;-52
2022/10/28 07:50:11;;;;;;;3.80;1.70;;;16.70;99.90;;;16.46;99.66;97955.81;4996348;28;20383;-54
2022/10/28 07:52:37;;;;;;;8.23;2.25;;;16.70;99.90;;;16.44;97.76;97965.69;5017911;28;20365;-54
2022/10/28 07:55:05;;;;;;;8.07;2.00;;;16.80;99.90;;;16.43;97.32;97961.28;5016664;28;20398;-53
2022/10/28 07:57:30;;;;;;;7.72;2.90;;;16.80;99.90;;;16.39;97.54;97963.25;5014973;28;20032;-53
2022/10/28 07:59:56;;;;;;;7.03;2.22;;;16.70;99.90;;;16.41;97.25;97956.03;5015519;28;20030;-53
2022/10/28 08:02:23;;;;;;;3.08;1.70;;;16.70;99.90;;;16.44;98.46;97956.81;5015233;28;20041;-54
2022/10/28 08:04:49;;;;;;;5.68;1.70;;;16.80;99.90;;;16.54;98.90;97958.06;5016757;28;20033;-53
2022/10/28 08:07:16;;;;;;;4.07;1.85;;;16.80;99.90;;;16.60;99.10;97957.75;5017377;28;20048;-54
2022/10/28 08:09:41;;;;;;;9.38;2.53;;;16.90;99.90;;;16.65;96.42;97960.16;5019301;28;20080;-52
2022/10/28 08:12:08;;;;;;;7.03;2.47;;;16.90;99.90;;;16.74;97.08;97960.56;5019831;28;20412;-53
2022/10/28 08:14:34;;;;;;;5.05;1.75;;;17.10;99.90;;;16.86;96.42;97961.72;4998563;28;20079;-52
2022/10/28 08:17:00;;;;;;;10.55;2.40;;;17.20;99.90;;;16.97;96.84;97958.47;5016595;28;20025;-54
2022/10/28 08:19:26;;;;;;;4.85;1.70;;;17.30;99.90;;;17.09;95.50;97959.63;5017883;28;20038;-53
2022/10/28 08:21:52;;;;;;;5.20;2.10;;;17.40;99.90;;;17.19;94.49;97960.81;5017910;28;20113;-52
2022/10/28 08:24:18;;;;;;;3.90;2.00;;;17.50;99.90;;;17.24;95.12;97960.59;5017625;28;20419;-54
2022/10/28 08:26:43;;;;;;;3.03;1.75;;;17.50;99.90;;;17.34;94.46;97975.13;5019818;28;20026;-54
2022/10/28 08:29:11;;;;;;;4.53;2.28;;;17.60;99.90;;;17.37;94.84;97974.94;5015854;28;20466;-54
2022/10/28 08:31:39;;;;;;;3.45;1.95;;;17.60;99.90;;;17.43;95.54;97973.75;5017493;28;20030;-54
2022/10/28 08:34:05;;;;;;;5.20;2.30;;;17.70;99.90;;;17.45;94.47;97971.88;5017271;28;20117;-53
2022/10/28 08:36:32;;;;;;;8.52;2.13;;;17.70;99.90;;;17.43;94.93;97971.09;5017327;28;20053;-53
2022/10/28 08:39:00;;;;;;;7.72;2.13;;;17.80;99.90;;;17.45;94.84;97966.53;5017842;28;20171;-55
2022/10/28 08:41:45;;;;;;;6.32;2.53;;;17.70;99.90;;;17.43;90.86;97965.78;5016265;28;20034;-53
2022/10/28 08:44:50;;;;;;;7.35;2.10;;;17.80;99.90;;;17.51;92.19;97958.19;5017594;28;20041;-53
2022/10/28 08:47:38;;;;;;;7.07;2.25;;;17.80;99.90;;;17.53;90.27;97950.94;5016589;28;20441;-54
2022/10/28 08:50:19;;;;;;;13.02;2.67;;;17.80;99.90;;;17.61;89.92;97948.72;5018321;28;20515;-53
2022/10/28 08:53:02;;;;;;;7.72;2.75;;;17.90;99.90;;;17.67;90.78;97951.03;5008079;28;20037;-54
2022/10/28 08:55:37;;;;;;;8.25;2.67;;;18.00;99.90;;;17.65;87.05;97939.59;5001961;28;20505;-53
2022/10/28 08:58:32;;;;;;;8.60;2.58;;;18.00;99.90;;;17.86;89.66;97955.38;4999672;28;20088;-53
2022/10/28 09:00:58;;;;;;;5.75;2.47;;;18.20;99.90;;;17.95;88.24;97954.81;4998180;28;20034;-52
2022/10/28 09:03:26;;;;;;;5.93;2.30;;;18.30;99.90;;;18.13;88.77;97960.91;5016655;28;20092;-54
2022/10/28 09:06:07;;;;;;;4.25;2.40;;;18.40;99.90;;;18.28;88.23;97957.31;4998781;28;20514;-54
2022/10/28 09:08:39;;;;;;;7.10;2.10;;;18.60;99.90;;;18.41;86.75;97962.81;4998303;28;20026;-54
2022/10/28 09:11:38;;;;;;;7.27;2.30;;;18.70;99.90;;;18.49;85.36;97967.69;5015374;28;20396;-55
2022/10/28 09:14:43;;;;;;;3.97;2.00;;;18.80;99.90;;;18.57;82.44;97981.41;4998234;28;20323;-56
2022/10/28 09:17:36;;;;;;;4.03;2.08;;;18.90;99.90;;;18.68;81.13;98007.47;5000237;28;20029;-55
2022/10/28 09:20:18;;;;;;;7.18;2.00;;;18.90;99.90;;;18.63;82.56;97989.06;5016415;28;20133;-54
2022/10/28 09:22:56;;;;;;;7.27;2.40;;;19.00;99.90;;;18.81;83.29;98003.16;5015244;28;20025;-52
2022/10/28 09:25:36;;;;;;;4.60;2.08;;;19.10;99.90;;;18.82;83.96;97994.16;5016015;28;20048;-52
2022/10/28 09:28:50;;;;;;;4.03;1.95;;;19.10;99.90;;;18.84;85.71;97983.41;5001221;28;20674;-55
2022/10/28 09:31:34;;;;;;;7.72;2.22;;;19.10;99.90;;;18.73;88.09;97973.31;4927925;28;20127;-54
2022/10/28 09:34:27;;;;;;;4.22;2.05;;;19.00;99.90;;;18.67;86.16;97952.34;5017009;28;20108;-54
2022/10/28 09:37:25;;;;;;;3.45;2.00;;;19.00;99.90;;;18.69;86.51;97929.91;5002025;28;20132;-55
2022/10/28 09:39:55;;;;;;;6.47;2.45;;;19.00;99.90;;;18.72;88.62;97911.97;4991072;28;20513;-55
2022/10/28 09:42:40;;;;;;;14.52;3.05;;;19.00;99.90;;;18.67;92.04;97958.53;5015923;28;20021;-54
2022/10/28 09:45:17;;;;;;;5.90;2.70;;;19.00;99.90;;;18.65;89.42;97951.59;4996630;28;20128;-55
2022/10/28 09:48:04;;;;;;;10.10;3.38;;;18.90;99.90;;;18.57;91.45;97936.00;4996875;28;20434;-56
2022/10/28 09:50:31;;;;;;;11.50;3.30;;;19.00;99.90;;;18.67;89.43;97953.19;4996120;28;20084;-54
2022/10/28 09:53:12;;;;;;;4.63;2.40;;;19.00;99.90;;;18.83;90.42;97954.97;5017806;28;20040;-56
2022/10/28 09:55:38;;;;;;;9.82;3.00;;;19.20;99.90;;;19.06;88.51;97959.75;4996381;28;20037;-55
2022/10/28 09:58:04;;;;;;;6.90;2.70;;;19.40;99.90;;;19.27;86.23;97960.22;5016454;28;20445;-55
2022/10/28 10:00:31;;;;;;;7.82;2.65;;;19.60;99.90;;;19.46;84.61;97973.25;4997699;28;20080;-55
2022/10/28 10:02:58;;;;;;;7.13;2.45;;;19.80;99.90;;;19.62;83.05;97953.53;4997239;28;20037;-56
2022/10/28 10:05:25;;;;;;;5.72;2.58;;;20.00;99.90;;;19.78;82.96;97953.44;4998049;28;20033;-55
2022/10/28 10:07:57;;;;;;;5.00;2.45;;;20.10;99.90;;;19.89;85.91;97953.59;4996344;28;20483;-54
2022/10/28 10:10:52;;;;;;;7.65;2.65;;;20.20;99.90;;;20.01;80.95;97960.81;4998936;28;20026;-55
2022/10/28 10:13:26;;;;;;;8.55;2.13;;;20.30;99.90;;;20.15;82.04;97956.34;4997623;28;20033;-56
2022/10/28 10:15:57;;;;;;;5.78;2.10;;;20.50;99.90;;;20.29;80.76;97960.78;5014364;28;20033;-55
2022/10/28 10:18:31;;;;;;;6.13;2.10;;;20.60;99.90;;;20.43;79.75;97968.72;5016891;28;20037;-55
2022/10/28 10:20:58;;;;;;;6.60;2.10;;;20.80;99.90;;;20.64;77.73;97970.91;5014417;28;20071;-55
2022/10/28 10:23:33;;;;;;;5.85;1.80;;;21.00;99.90;;;20.78;73.54;97974.38;4997543;28;20025;-53
2022/10/28 10:26:14;;;;;;;6.40;2.00;;;21.10;99.90;;;20.84;73.04;97957.00;4997319;28;20070;-55
2022/10/28 10:28:48;;;;;;;12.23;2.57;;;21.20;99.90;;;20.75;71.10;97937.06;5016653;28;20034;-53
2022/10/28 10:31:21;;;;;;;4.20;2.05;;;21.20;99.90;;;20.71;70.96;97908.78;4997633;28;20108;-54
2022/10/28 10:33:52;;;;;;;;;;;21.10;99.90;;;20.43;68.95;97892.88;5015520;28;20123;-54